Time;durP1;ratioP1;P1;durP2;ratioP2;P2;SDS_P1;SDS_P2;PMS_P1;PMS_P2;Temp;Humidity;BMP_temperature;BMP_pressure;BME280_temperature;BME280_humidity;BME280_pressure;Samples;Min_cycle;Max_cycle;Signal;HPM_P1;HPM_P2
2022/02/16 00:00:36;;;;;;;;;3.00;0.00;;;;;11.72;74.18;100643.06;5078935;27;45461;-75
2022/02/16 00:03:02;;;;;;;;;0.00;0.00;;;;;11.72;73.76;100643.06;5080798;27;59381;-75
2022/02/16 00:05:28;;;;;;;;;1.00;1.00;;;;;11.74;73.67;100632.47;5058398;28;46423;-76
2022/02/16 00:07:53;;;;;;;;;0.00;0.00;;;;;11.74;73.98;100640.41;5075659;27;45794;-75
2022/02/16 00:10:19;;;;;;;;;0.00;0.00;;;;;11.74;73.70;100611.31;5075266;27;45535;-75
2022/02/16 00:12:47;;;;;;;;;1.00;0.00;;;;;11.71;73.88;100609.53;5075849;28;45960;-75
2022/02/16 00:15:15;;;;;;;;;0.33;0.33;;;;;11.72;73.86;100602.50;5056614;28;45545;-76
2022/02/16 00:17:41;;;;;;;;;0.00;0.00;;;;;11.75;74.06;100603.38;5075896;28;45444;-75
2022/02/16 00:20:07;;;;;;;;;0.00;0.00;;;;;11.75;73.96;100610.41;5074461;28;45536;-75
2022/02/16 00:22:32;;;;;;;;;0.00;0.00;;;;;11.72;74.41;100605.16;5075540;28;46471;-75
2022/02/16 00:24:58;;;;;;;;;1.00;0.00;;;;;11.78;73.99;100613.97;5079667;27;63097;-75
2022/02/16 00:27:23;;;;;;;;;0.00;0.00;;;;;11.80;74.31;100608.69;5074707;27;56949;-77
2022/02/16 00:29:49;;;;;;;;;0.00;0.00;;;;;11.80;73.67;100608.69;5075261;27;45519;-75
2022/02/16 00:32:14;;;;;;;;;1.00;0.00;;;;;11.82;74.17;100603.41;5074981;27;62213;-76
2022/02/16 00:34:42;;;;;;;;;0.00;0.00;;;;;11.83;73.76;100607.84;5073551;27;48564;-75
2022/02/16 00:37:07;;;;;;;;;1.67;0.00;;;;;11.83;73.69;100592.84;5082095;27;46191;-75
2022/02/16 00:39:33;;;;;;;;;0.00;0.00;;;;;11.83;73.59;100590.22;5076231;27;49897;-75
2022/02/16 00:41:58;;;;;;;;;0.00;0.00;;;;;11.84;73.94;100581.38;5074997;27;47819;-75
2022/02/16 00:44:24;;;;;;;;;0.00;0.00;;;;;11.83;74.29;100576.97;5087453;27;45466;-76
2022/02/16 00:46:49;;;;;;;;;0.00;0.00;;;;;11.84;74.63;100576.09;5048820;28;45650;-75
2022/02/16 00:49:15;;;;;;;;;0.00;0.00;;;;;11.83;75.05;100574.34;5089904;27;45531;-76
2022/02/16 00:51:42;;;;;;;;;0.00;0.00;;;;;11.82;75.22;100576.97;5078029;27;62826;-75
2022/02/16 00:54:07;;;;;;;;;0.00;0.00;;;;;11.82;74.02;100574.31;5075587;27;45514;-75
2022/02/16 00:56:33;;;;;;;;;0.00;0.00;;;;;11.82;74.14;100561.09;5083774;27;45404;-76
2022/02/16 00:58:58;;;;;;;;;0.00;0.00;;;;;11.83;74.50;100550.53;5085329;27;45473;-77
2022/02/16 01:01:24;;;;;;;;;1.00;0.00;;;;;11.83;74.20;100547.00;5076568;27;61749;-76
2022/02/16 01:03:51;;;;;;;;;0.00;0.00;;;;;11.81;73.98;100546.94;5074524;27;57862;-75
2022/02/16 01:06:20;;;;;;;;;1.00;0.00;;;;;11.79;74.35;100538.13;5088110;27;45520;-76
2022/02/16 01:08:45;;;;;;;;;0.00;0.00;;;;;11.75;74.67;100529.31;5075927;27;45471;-76
2022/02/16 01:11:10;;;;;;;;;0.00;0.00;;;;;11.76;74.33;100528.41;5079659;27;46355;-77
2022/02/16 01:13:38;;;;;;;;;0.00;0.00;;;;;11.76;74.31;100520.47;5082164;27;58950;-75
2022/02/16 01:16:04;;;;;;;;;0.00;0.00;;;;;11.74;73.92;100519.63;5074469;27;47685;-75
2022/02/16 01:18:32;;;;;;;;;1.00;0.00;;;;;11.75;74.07;100517.84;5085734;27;45619;-76
2022/02/16 01:20:59;;;;;;;;;0.00;0.00;;;;;11.79;74.71;100514.34;5089460;27;46285;-75
2022/02/16 01:23:25;;;;;;;;;0.00;0.00;;;;;11.79;74.83;100506.41;5078138;27;45512;-76
2022/02/16 01:25:52;;;;;;;;;0.00;0.00;;;;;11.77;74.72;100498.47;5081606;27;45732;-75
2022/02/16 01:28:21;;;;;;;;;0.00;0.00;;;;;11.77;74.63;100506.41;5074372;27;45756;-75
2022/02/16 01:30:46;;;;;;;;;0.00;0.00;;;;;11.76;74.55;100503.75;5074057;27;47382;-75
2022/02/16 01:33:12;;;;;;;;;0.00;0.00;;;;;11.75;74.82;100512.56;5078665;27;45403;-76
2022/02/16 01:35:37;;;;;;;;;0.00;0.00;;;;;11.77;74.39;100503.75;5067942;27;55626;-77
2022/02/16 01:38:06;;;;;;;;;1.00;0.00;;;;;11.79;74.07;100498.47;5073832;27;46740;-75
2022/02/16 01:40:31;;;;;;;;;0.00;0.00;;;;;11.74;74.84;100482.59;5074223;27;46630;-75
2022/02/16 01:42:56;;;;;;;;;0.00;0.00;;;;;11.80;74.38;100484.34;5056060;28;45486;-77
2022/02/16 01:45:26;;;;;;;;;0.00;0.00;;;;;11.83;74.50;100473.81;5073313;27;58115;-75
2022/02/16 01:47:54;;;;;;;;;0.00;0.00;;;;;11.83;74.65;100487.03;5089157;27;46743;-76
2022/02/16 01:50:20;;;;;;;;;0.00;0.00;;;;;11.85;74.88;100484.38;5073737;27;46553;-76
2022/02/16 01:52:47;;;;;;;;;0.00;0.00;;;;;11.83;74.69;100473.81;5076320;27;60919;-75
2022/02/16 01:55:13;;;;;;;;;0.00;0.00;;;;;11.85;74.68;100484.38;5077756;27;45584;-76
2022/02/16 01:57:39;;;;;;;;;0.00;0.00;;;;;11.83;75.00;100465.00;5074482;27;45683;-76
2022/02/16 02:00:05;;;;;;;;;0.00;0.00;;;;;11.85;75.24;100474.69;5076273;27;46385;-76
2022/02/16 02:02:30;;;;;;;;;0.00;0.00;;;;;11.84;75.10;100450.88;5074791;27;45532;-76
2022/02/16 02:04:56;;;;;;;;;0.00;0.00;;;;;11.84;75.01;100445.59;5073907;27;45463;-75
2022/02/16 02:07:21;;;;;;;;;1.00;0.00;;;;;11.82;75.03;100456.16;5073821;27;45828;-76
2022/02/16 02:09:48;;;;;;;;;0.00;0.00;;;;;11.79;75.62;100441.16;5072514;27;56000;-77
2022/02/16 02:12:15;;;;;;;;;0.00;0.00;;;;;11.83;75.24;100434.13;5073506;27;45446;-77
2022/02/16 02:14:42;;;;;;;;;1.00;0.00;;;;;11.84;75.24;100435.91;5073260;27;45430;-77
2022/02/16 02:17:07;;;;;;;;;0.00;0.00;;;;;11.83;75.27;100428.84;5073633;27;45837;-76
2022/02/16 02:19:32;;;;;;;;;0.00;0.00;;;;;11.86;75.09;100436.75;5072426;27;63366;-77
2022/02/16 02:22:00;;;;;;;;;0.00;0.00;;;;;11.87;75.61;100424.41;5072407;27;58233;-77
2022/02/16 02:24:25;;;;;;;;;0.00;0.00;;;;;11.90;75.26;100414.72;5073166;27;45519;-76
2022/02/16 02:26:51;;;;;;;;;0.00;0.00;;;;;11.88;75.54;100411.22;5075237;27;45462;-75
2022/02/16 02:29:16;;;;;;;;;0.00;0.00;;;;;11.92;75.43;100420.00;5072537;27;62118;-75
2022/02/16 02:31:42;;;;;;;;;0.00;0.00;;;;;11.91;75.60;100413.81;5075714;27;45604;-76
2022/02/16 02:34:07;;;;;;;;;0.00;0.00;;;;;11.90;75.54;100396.19;5079477;27;45633;-76
2022/02/16 02:36:35;;;;;;;;;0.00;0.00;;;;;11.91;75.58;100395.31;5069943;27;53535;-77
2022/02/16 02:39:00;;;;;;;;;0.00;0.00;;;;;11.90;75.76;100392.69;5072811;27;46468;-76
2022/02/16 02:41:28;;;;;;;;;0.00;0.00;;;;;11.93;75.85;100385.63;5174079;22;45790;-75
2022/02/16 02:43:53;;;;;;;;;0.00;0.00;;;;;11.92;75.53;100378.53;5091687;27;45556;-76
2022/02/16 02:46:19;;;;;;;;;0.00;0.00;;;;;11.94;76.22;100382.09;5092428;27;45505;-75
2022/02/16 02:48:44;;;;;;;;;0.00;0.00;;;;;11.92;75.64;100378.53;5085451;27;46467;-76
2022/02/16 02:51:12;;;;;;;;;0.00;0.00;;;;;11.95;75.76;100375.91;5088707;27;45519;-75
2022/02/16 02:53:38;;;;;;;;;0.00;0.00;;;;;11.95;75.91;100372.38;5088264;27;45418;-75
2022/02/16 02:56:04;;;;;;;;;0.00;0.00;;;;;11.99;75.55;100363.56;5087341;27;45383;-75
2022/02/16 02:58:32;;;;;;;;;0.00;0.00;;;;;12.00;76.26;100365.31;5085229;27;46442;-75
2022/02/16 03:00:58;;;;;;;;;0.00;0.00;;;;;11.99;76.11;100364.44;5086991;27;45416;-78
2022/02/16 03:03:26;;;;;;;;;1.00;0.00;;;;;11.98;75.92;100357.38;5094660;27;45632;-75
2022/02/16 03:05:52;;;;;;;;;1.00;0.00;;;;;11.96;75.89;100348.56;5091627;27;45565;-75
2022/02/16 03:08:17;;;;;;;;;0.00;0.00;;;;;12.00;75.74;100352.97;5087449;27;47804;-75
2022/02/16 03:10:43;;;;;;;;;0.00;0.00;;;;;11.97;75.58;100339.72;5095777;27;55962;-76
2022/02/16 03:13:19;;;;;;;;;0.00;0.00;;;;;12.02;75.81;100330.03;5095419;27;57676;-75
2022/02/16 03:15:46;;;;;;;;;0.00;0.00;;;;;12.02;76.05;100334.44;5091218;27;45416;-75
2022/02/16 03:18:11;;;;;;;;;0.00;0.00;;;;;11.97;76.57;100337.09;5094673;27;47673;-75
2022/02/16 03:20:37;;;;;;;;;1.00;0.00;;;;;11.97;77.25;100321.22;5089632;27;47383;-75
2022/02/16 03:23:02;;;;;;;;;0.00;0.00;;;;;11.97;76.52;100315.91;5076585;27;56010;-75
2022/02/16 03:25:32;;;;;;;;;1.00;0.00;;;;;11.98;77.61;100314.16;5085531;27;54462;-75
2022/02/16 03:27:58;;;;;;;;;0.00;0.00;;;;;11.98;76.51;100308.84;5095867;27;46515;-75
2022/02/16 03:30:25;;;;;;;;;0.00;0.00;;;;;11.99;76.83;100302.72;5095277;27;45465;-75
2022/02/16 03:32:51;;;;;;;;;0.00;0.00;;;;;11.99;76.89;100306.22;5089444;27;45352;-75
2022/02/16 03:35:18;;;;;;;;;0.00;0.00;;;;;11.98;76.98;100301.81;5092683;27;55529;-75
2022/02/16 03:37:44;;;;;;;;;1.00;0.00;;;;;12.01;76.68;100299.16;5091815;27;46461;-75
2022/02/16 03:40:09;;;;;;;;;0.00;0.00;;;;;12.03;76.89;100307.09;5092167;27;60519;-76
2022/02/16 03:42:34;;;;;;;;;0.00;0.00;;;;;12.01;76.85;100293.88;5093278;27;45398;-76
2022/02/16 03:45:00;;;;;;;;;0.00;0.00;;;;;12.01;77.10;100296.50;5097909;27;45412;-74
2022/02/16 03:47:25;;;;;;;;;0.00;0.00;;;;;11.99;77.29;100290.34;5091941;27;62574;-75
2022/02/16 03:49:51;;;;;;;;;0.00;0.00;;;;;12.01;77.34;100277.13;5092979;27;63875;-76
2022/02/16 03:52:16;;;;;;;;;0.00;0.00;;;;;11.98;77.66;100288.56;5088219;27;56002;-77
2022/02/16 03:54:41;;;;;;;;;0.00;0.00;;;;;11.99;78.91;100284.19;5098222;27;53149;-75
2022/02/16 03:57:07;;;;;;;;;0.00;0.00;;;;;11.97;79.01;100280.66;5095563;27;57334;-75
2022/02/16 03:59:32;;;;;;;;;0.00;0.00;;;;;11.94;79.56;100263.03;5095990;27;45461;-77
2022/02/16 04:02:01;;;;;;;;;0.00;0.00;;;;;11.92;78.54;100269.19;5093498;27;46218;-76
2022/02/16 04:04:27;;;;;;;;;0.00;0.00;;;;;11.88;78.44;100262.16;5098204;27;45675;-75
2022/02/16 04:06:52;;;;;;;;;0.00;0.00;;;;;11.92;78.37;100261.25;5089658;27;46297;-75
2022/02/16 04:09:18;;;;;;;;;0.00;0.00;;;;;11.91;78.40;100265.69;5095126;27;59842;-76
2022/02/16 04:11:43;;;;;;;;;0.00;0.00;;;;;11.90;78.99;100261.28;5106251;27;45440;-76
2022/02/16 04:14:08;;;;;;;;;1.00;0.00;;;;;11.92;79.04;100264.78;5075240;27;52949;-75
2022/02/16 04:16:34;;;;;;;;;0.00;0.00;;;;;11.93;78.85;100265.66;5095172;27;57705;-75
2022/02/16 04:18:59;;;;;;;;;0.00;0.00;;;;;11.93;78.77;100263.94;5095633;27;45460;-75
2022/02/16 04:21:32;;;;;;;;;0.00;0.00;;;;;11.93;78.82;100263.94;5094675;27;55604;-77
2022/02/16 04:23:58;;;;;;;;;0.67;0.00;;;;;11.95;79.31;100262.16;5111365;27;45503;-76
2022/02/16 04:26:26;;;;;;;;;0.00;0.00;;;;;11.96;79.50;100266.53;5096050;27;46616;-75
2022/02/16 04:28:58;;;;;;;;;0.00;0.00;;;;;11.98;79.24;100261.22;5105014;27;61980;-75
2022/02/16 04:31:24;;;;;;;;;0.00;0.00;;;;;11.99;79.10;100258.59;5095410;27;45522;-75
2022/02/16 04:33:49;;;;;;;;;1.00;0.00;;;;;12.02;79.43;100263.00;5102293;27;54161;-77
2022/02/16 04:36:25;;;;;;;;;0.00;0.00;;;;;12.04;79.46;100254.19;5096537;27;63644;-75
2022/02/16 04:38:53;;;;;;;;;0.00;0.00;;;;;12.01;79.11;100248.88;5089330;27;45510;-76
2022/02/16 04:41:18;;;;;;;;;0.00;0.00;;;;;12.07;79.48;100254.16;5076815;27;45328;-77
2022/02/16 04:43:43;;;;;;;;;0.00;0.00;;;;;12.12;78.87;100243.53;5101297;27;45355;-75
2022/02/16 04:46:09;;;;;;;;;0.00;0.00;;;;;12.14;78.41;100231.16;5094515;27;62113;-75
2022/02/16 04:48:35;;;;;;;;;0.00;0.00;;;;;12.18;78.53;100238.22;5098990;27;64393;-76
2022/02/16 04:51:03;;;;;;;;;1.00;0.00;;;;;12.19;79.63;100229.38;5101015;27;45488;-75
2022/02/16 04:53:32;;;;;;;;;0.00;0.00;;;;;12.20;78.60;100231.16;5100855;27;45487;-76
2022/02/16 04:56:01;;;;;;;;;0.00;0.00;;;;;12.23;78.80;100238.19;5085036;27;46833;-76
2022/02/16 04:58:26;;;;;;;;;0.00;0.00;;;;;12.23;78.67;100227.59;5099805;27;45581;-75
2022/02/16 05:00:54;;;;;;;;;0.00;0.00;;;;;12.24;84.40;100232.88;5096167;27;55126;-76
2022/02/16 05:03:19;;;;;;;;;1.00;0.00;;;;;12.25;84.17;100223.16;5090666;27;49473;-76
2022/02/16 05:05:44;;;;;;;;;0.00;0.00;;;;;12.27;83.78;100245.25;5088397;27;59553;-76
2022/02/16 05:08:10;;;;;;;;;0.00;0.00;;;;;12.28;83.59;100236.41;5088454;27;45487;-75
2022/02/16 05:10:35;;;;;;;;;1.00;0.00;;;;;12.29;83.59;100233.75;5089735;27;54905;-75
2022/02/16 05:13:03;;;;;;;;;0.00;0.00;;;;;12.31;82.94;100237.28;5088174;27;53701;-75
2022/02/16 05:15:30;;;;;;;;;0.00;0.00;;;;;12.33;80.94;100251.38;5094581;27;47851;-75
2022/02/16 05:17:56;;;;;;;;;0.00;0.00;;;;;12.34;79.29;100252.25;5094575;27;62548;-75
2022/02/16 05:20:22;;;;;;;;;0.00;0.00;;;;;12.37;79.57;100240.78;5095333;27;45800;-77
2022/02/16 05:22:47;;;;;;;;;0.00;0.00;;;;;12.39;79.09;100237.22;5089855;27;45812;-75
2022/02/16 05:25:12;;;;;;;;;0.00;0.00;;;;;12.39;79.17;100239.88;5097744;27;64136;-75
2022/02/16 05:27:38;;;;;;;;;0.00;0.00;;;;;12.41;79.15;100237.19;5093290;27;45471;-75
2022/02/16 05:30:03;;;;;;;;;0.00;0.00;;;;;12.36;79.63;100239.91;5102394;27;45543;-75
2022/02/16 05:32:29;;;;;;;;;0.00;0.00;;;;;12.44;79.10;100216.88;5113990;27;45452;-74
2022/02/16 05:34:54;;;;;;;;;0.00;0.00;;;;;12.45;79.27;100221.28;5104205;27;61299;-76
2022/02/16 05:37:20;;;;;;;;;0.00;0.00;;;;;12.43;78.96;100216.91;5096905;27;59434;-76
2022/02/16 05:39:45;;;;;;;;;0.00;0.00;;;;;12.44;79.04;100216.00;5096272;27;45299;-77
2022/02/16 05:42:12;;;;;;;;;0.00;0.00;;;;;12.50;79.33;100223.91;5107456;27;45565;-77
2022/02/16 05:44:41;;;;;;;;;0.00;0.00;;;;;12.51;79.04;100221.25;5103770;27;45785;-76
2022/02/16 05:47:06;;;;;;;;;0.00;0.00;;;;;12.48;79.04;100221.28;5102260;27;45495;-77
2022/02/16 05:49:32;;;;;;;;;0.00;0.00;;;;;12.52;79.84;100243.34;5098456;27;46072;-76
2022/02/16 05:51:57;;;;;;;;;0.00;0.00;;;;;12.55;79.15;100220.34;5107597;27;45508;-76
2022/02/16 05:54:22;;;;;;;;;0.00;0.00;;;;;12.58;78.89;100227.41;5105264;27;45659;-76
2022/02/16 05:56:48;;;;;;;;;0.00;0.00;;;;;12.59;79.31;100240.63;5110252;27;45276;-76
2022/02/16 05:59:13;;;;;;;;;0.00;0.00;;;;;12.62;79.12;100230.88;5107528;27;45345;-78
2022/02/16 06:01:39;;;;;;;;;0.00;0.00;;;;;12.64;79.13;100243.25;5104258;27;51154;-75
2022/02/16 06:04:04;;;;;;;;;0.00;0.00;;;;;12.64;79.90;100240.59;5103971;27;46457;-75
2022/02/16 06:06:30;;;;;;;;;1.00;0.00;;;;;12.68;79.21;100229.09;5098238;27;46023;-75
2022/02/16 06:08:55;;;;;;;;;0.00;0.00;;;;;12.70;79.14;100229.94;5096434;27;53749;-75
2022/02/16 06:11:20;;;;;;;;;0.00;0.00;;;;;12.73;79.49;100247.59;5104437;27;54070;-75
2022/02/16 06:13:46;;;;;;;;;0.00;0.00;;;;;12.76;78.94;100236.97;5097137;27;46471;-75
2022/02/16 06:16:11;;;;;;;;;0.00;0.00;;;;;12.78;79.42;100241.38;5078053;27;58710;-75
2022/02/16 06:18:37;;;;;;;;;0.00;0.00;;;;;12.80;78.58;100241.38;5097113;27;45354;-76
2022/02/16 06:21:02;;;;;;;;;0.00;0.00;;;;;12.79;79.23;100244.91;5094546;27;54367;-76
2022/02/16 06:23:28;;;;;;;;;0.00;0.00;;;;;12.83;78.82;100231.59;5077962;27;46228;-76
2022/02/16 06:25:55;;;;;;;;;0.00;0.00;;;;;12.89;79.08;100248.34;5092594;27;62238;-76
2022/02/16 06:28:23;;;;;;;;;0.00;0.00;;;;;12.91;79.30;100247.47;5112186;27;45195;-76
2022/02/16 06:30:51;;;;;;;;;0.67;0.00;;;;;12.94;78.80;100242.13;5107246;27;45666;-77
2022/02/16 06:33:17;;;;;;;;;0.00;0.00;;;;;12.98;78.65;100243.84;5089878;27;47531;-78
2022/02/16 06:35:42;;;;;;;;;0.00;0.00;;;;;12.99;79.24;100239.44;5096714;27;45375;-78
2022/02/16 06:38:10;;;;;;;;;0.00;0.00;;;;;12.99;79.02;100248.25;5095208;27;54932;-78
2022/02/16 06:40:35;;;;;;;;;0.00;0.00;;;;;13.00;79.64;100251.81;5096665;27;45533;-78
2022/02/16 06:43:01;;;;;;;;;1.00;0.00;;;;;13.00;79.58;100251.81;5102508;27;47429;-79
2022/02/16 06:45:28;;;;;;;;;0.00;0.00;;;;;13.03;79.46;100251.78;5093879;27;55929;-77
2022/02/16 06:47:54;;;;;;;;;0.67;0.00;;;;;13.03;79.50;100267.69;5093560;27;45480;-76
2022/02/16 06:50:19;;;;;;;;;0.67;0.00;;;;;13.07;79.47;100265.00;5093741;27;45491;-78
2022/02/16 06:52:44;;;;;;;;;0.00;0.00;;;;;13.10;79.72;100279.97;5097609;27;61250;-77
2022/02/16 06:55:10;;;;;;;;;0.00;0.00;;;;;13.11;79.49;100285.28;5094575;27;45471;-76
2022/02/16 06:57:38;;;;;;;;;0.00;0.00;;;;;13.08;79.53;100281.78;5103409;27;45584;-79
2022/02/16 07:00:06;;;;;;;;;0.00;0.00;;;;;13.13;79.33;100285.25;5103005;27;45474;-74
2022/02/16 07:02:40;;;;;;;;;0.00;0.00;;;;;13.16;79.68;100290.56;5095956;27;46515;-75
2022/02/16 07:05:07;;;;;;;;;0.00;0.00;;;;;13.15;79.45;100291.41;5081353;27;46046;-76
2022/02/16 07:07:33;;;;;;;;;0.00;0.00;;;;;13.23;79.14;100280.81;5107660;27;45376;-77
2022/02/16 07:09:58;;;;;;;;;0.00;0.00;;;;;13.25;78.67;100294.91;5094298;27;55060;-73
2022/02/16 07:12:24;;;;;;;;;0.00;0.00;;;;;13.26;78.77;100297.56;5093647;27;46304;-76
2022/02/16 07:14:53;;;;;;;;;0.00;0.00;;;;;13.25;78.66;100297.56;5099928;27;57555;-76
2022/02/16 07:17:21;;;;;;;;;0.00;0.00;;;;;13.28;79.35;100302.84;5089296;27;45545;-77
2022/02/16 07:19:46;;;;;;;;;0.00;0.00;;;;;13.29;78.89;100302.84;5095147;27;47232;-75
2022/02/16 07:22:12;;;;;;;;;0.00;0.00;;;;;13.29;78.92;100291.34;5093690;27;62984;-75
2022/02/16 07:24:37;;;;;;;;;0.00;0.00;;;;;13.33;78.36;100299.28;5096513;27;46153;-76
2022/02/16 07:27:06;;;;;;;;;0.00;0.00;;;;;13.35;78.50;100294.81;5094892;27;45470;-74
2022/02/16 07:29:31;;;;;;;;;0.00;0.00;;;;;13.37;78.44;100284.22;5097736;27;45322;-76
2022/02/16 07:31:57;;;;;;;;;0.00;0.00;;;;;13.39;78.28;100282.41;5098299;27;46395;-76
2022/02/16 07:34:24;;;;;;;;;1.00;0.00;;;;;13.42;78.15;100282.38;5091855;27;46865;-75
2022/02/16 07:36:50;;;;;;;;;0.00;0.00;;;;;13.45;78.20;100292.97;5095500;27;45410;-75
2022/02/16 07:39:15;;;;;;;;;0.00;0.00;;;;;13.48;78.34;100287.66;5095441;27;45525;-75
2022/02/16 07:41:41;;;;;;;;;0.00;0.00;;;;;13.52;78.21;100291.13;5096305;27;58841;-77
2022/02/16 07:44:06;;;;;;;;;0.00;0.00;;;;;13.55;78.06;100293.75;5106122;27;47917;-76
2022/02/16 07:46:33;;;;;;;;;0.00;0.00;;;;;13.56;77.84;100300.81;5092699;27;54557;-76
2022/02/16 07:48:59;;;;;;;;;0.00;0.00;;;;;13.58;78.07;100305.22;5098080;27;46477;-75
2022/02/16 07:51:24;;;;;;;;;0.00;0.00;;;;;13.59;77.96;100306.13;5101060;27;59109;-76
2022/02/16 07:53:50;;;;;;;;;0.00;0.00;;;;;13.61;77.67;100309.63;5093268;27;45560;-75
2022/02/16 07:56:15;;;;;;;;;0.00;0.00;;;;;13.59;77.98;100304.34;5098147;27;45510;-76
2022/02/16 07:58:40;;;;;;;;;1.00;0.00;;;;;13.63;78.22;100308.72;5102597;27;46006;-77
2022/02/16 08:01:06;;;;;;;;;0.00;0.00;;;;;13.64;77.83;100304.28;5095842;27;58717;-75
2022/02/16 08:03:34;;;;;;;;;0.00;0.00;;;;;13.70;77.43;100314.84;5102798;27;51954;-75
2022/02/16 08:06:03;;;;;;;;;0.00;0.00;;;;;13.74;78.14;100302.41;5100548;27;46977;-76
2022/02/16 08:08:30;;;;;;;;;0.00;0.00;;;;;13.77;77.77;100300.59;5097772;27;45803;-75
2022/02/16 08:10:56;;;;;;;;;0.33;0.00;;;;;13.80;77.40;100308.53;5094211;27;48119;-75
2022/02/16 08:13:21;;;;;;;;;0.00;0.00;;;;;13.85;77.80;100300.53;5099719;27;45437;-75
2022/02/16 08:15:47;;;;;;;;;0.00;0.00;;;;;13.91;77.36;100310.22;5095813;27;55323;-75
2022/02/16 08:18:14;;;;;;;;;1.00;0.00;;;;;13.94;77.62;100311.03;5097555;27;49223;-75
2022/02/16 08:20:43;;;;;;;;;0.00;0.00;;;;;13.95;77.35;100323.41;5100929;27;46278;-76
2022/02/16 08:23:11;;;;;;;;;0.67;0.00;;;;;13.91;77.50;100327.00;5078228;27;45527;-76
2022/02/16 08:25:37;;;;;;;;;0.00;0.00;;;;;13.94;77.01;100332.25;5100554;27;45589;-75
2022/02/16 08:28:03;;;;;;;;;0.00;0.00;;;;;13.88;76.96;100321.72;5096288;27;45368;-75
2022/02/16 08:30:28;;;;;;;;;0.00;0.00;;;;;13.93;77.32;100322.56;5098251;27;45708;-75
2022/02/16 08:32:54;;;;;;;;;0.00;0.00;;;;;13.93;77.43;100326.97;5079690;27;45430;-75
2022/02/16 08:35:20;;;;;;;;;0.00;0.00;;;;;13.97;77.73;100320.75;5096968;27;45471;-75
2022/02/16 08:37:45;;;;;;;;;0.33;0.00;;;;;13.99;77.56;100325.13;5100048;27;52639;-75
2022/02/16 08:40:11;;;;;;;;;0.00;0.00;;;;;13.99;77.46;100317.16;5094876;27;46436;-75
2022/02/16 08:42:39;;;;;;;;;0.00;0.00;;;;;14.09;77.54;100325.91;5100092;27;45445;-75
2022/02/16 08:45:05;;;;;;;;;1.00;0.00;;;;;14.16;77.63;100314.31;5097549;27;45402;-75
2022/02/16 08:47:30;;;;;;;;;0.00;0.00;;;;;14.15;77.57;100318.75;5100826;27;45482;-76
2022/02/16 08:49:55;;;;;;;;;0.00;0.00;;;;;14.23;76.98;100326.63;5105137;27;62643;-75
2022/02/16 08:52:21;;;;;;;;;0.33;0.00;;;;;14.28;77.20;100329.25;5106038;27;45452;-75
2022/02/16 08:54:46;;;;;;;;;0.00;0.00;;;;;14.31;76.96;100323.88;5103396;27;45377;-75
2022/02/16 08:57:12;;;;;;;;;0.00;0.00;;;;;14.35;76.50;100323.81;5099195;27;52958;-76
2022/02/16 08:59:37;;;;;;;;;0.00;0.00;;;;;14.34;76.38;100324.72;5098122;27;46693;-75
2022/02/16 09:02:03;;;;;;;;;1.00;1.00;;;;;14.45;76.64;100337.88;5098550;27;61958;-75
2022/02/16 09:04:28;;;;;;;;;1.00;0.00;;;;;14.50;76.21;100340.50;5104431;27;45280;-75
2022/02/16 09:09:38;;;;;;;;;0.00;0.00;;;;;14.54;75.85;100336.88;5101001;27;45578;-75
2022/02/16 09:12:07;;;;;;;;;2.00;0.00;;;;;14.55;76.39;100333.34;5098819;27;45488;-75
2022/02/16 09:14:33;;;;;;;;;2.00;0.67;;;;;14.51;75.88;100337.81;5105132;27;45484;-75
2022/02/16 09:16:58;;;;;;;;;0.00;0.00;;;;;14.51;76.01;100344.91;5102424;27;45305;-75
2022/02/16 09:19:24;;;;;;;;;1.00;0.00;;;;;14.53;75.59;100345.75;5099070;27;45739;-76
2022/02/16 09:21:51;;;;;;;;;1.00;0.00;;;;;14.48;76.07;100348.47;5098959;27;52928;-76
2022/02/16 09:24:16;;;;;;;;;1.00;0.00;;;;;14.53;76.08;100351.06;5092500;27;45351;-75
2022/02/16 09:26:44;;;;;;;;;1.00;0.00;;;;;14.53;75.96;100349.28;5096807;27;56607;-75
2022/02/16 09:29:10;;;;;;;;;1.00;0.00;;;;;14.50;76.04;100367.06;5103616;27;46620;-75
2022/02/16 09:31:35;;;;;;;;;0.00;0.00;;;;;14.51;75.85;100377.69;5102459;27;46881;-76
2022/02/16 09:34:03;;;;;;;;;0.00;0.00;;;;;14.47;76.01;100383.00;5102628;27;45356;-74
2022/02/16 09:36:30;;;;;;;;;0.00;0.00;;;;;14.50;75.76;100385.66;5097362;27;45521;-75
2022/02/16 09:38:56;;;;;;;;;1.67;0.00;;;;;14.50;75.63;100391.88;5098433;27;46307;-75
2022/02/16 09:41:21;;;;;;;;;0.00;0.00;;;;;14.50;75.60;100393.63;5096494;27;45469;-76
2022/02/16 09:43:49;;;;;;;;;1.00;0.00;;;;;14.50;75.63;100381.22;5081892;27;45362;-76
2022/02/16 09:46:22;;;;;;;;;1.33;0.00;;;;;14.53;75.71;100394.47;5072347;27;45442;-75
2022/02/16 09:48:55;;;;;;;;;2.33;0.00;;;;;14.55;75.83;100379.41;5088096;27;47540;-75
2022/02/16 09:51:20;;;;;;;;;0.00;0.00;;;;;14.59;75.19;100369.59;5095620;27;46722;-75
2022/02/16 09:53:47;;;;;;;;;0.00;0.00;;;;;14.63;75.63;100360.69;5090425;27;45700;-75
2022/02/16 09:56:17;;;;;;;;;1.00;0.00;;;;;14.66;75.64;100363.31;5096102;27;47337;-75
2022/02/16 09:58:44;;;;;;;;;1.00;0.00;;;;;14.70;75.13;100362.38;5097426;27;46391;-75
2022/02/16 10:01:13;;;;;;;;;0.00;0.00;;;;;14.78;74.97;100375.56;5096812;27;45429;-75
2022/02/16 10:03:39;;;;;;;;;0.00;0.00;;;;;14.83;75.04;100360.44;5094699;27;45541;-75
2022/02/16 10:06:04;;;;;;;;;0.00;0.00;;;;;14.87;74.99;100378.97;5094343;27;45532;-76
2022/02/16 10:08:41;;;;;;;;;1.00;0.00;;;;;14.94;75.08;100377.09;5097025;27;47247;-76
2022/02/16 10:11:10;;;;;;;;;0.00;0.00;;;;;15.02;74.82;100363.69;5092098;27;45574;-75
2022/02/16 10:13:37;;;;;;;;;0.00;0.00;;;;;15.09;74.21;100358.28;5093308;27;45873;-75
2022/02/16 10:16:03;;;;;;;;;0.00;0.00;;;;;15.15;74.22;100363.50;5100572;27;45294;-76
2022/02/16 10:18:29;;;;;;;;;1.00;0.00;;;;;15.25;73.85;100364.22;5073983;27;46401;-75
2022/02/16 10:21:11;;;;;;;;;0.00;0.00;;;;;15.37;74.30;100360.50;5102888;27;45386;-75
2022/02/16 10:23:44;;;;;;;;;1.67;0.00;;;;;15.48;74.01;100355.88;5085375;27;45582;-75
2022/02/16 10:26:13;;;;;;;;;0.00;0.00;;;;;15.58;73.15;100365.47;5103233;27;45443;-76
2022/02/16 10:28:40;;;;;;;;;0.00;0.00;;;;;15.64;73.06;100362.72;5102571;27;47397;-75
2022/02/16 10:31:09;;;;;;;;;0.00;0.00;;;;;15.61;73.12;100367.22;5102268;27;45626;-75
2022/02/16 10:33:39;;;;;;;;;0.00;0.00;;;;;15.65;72.91;100375.13;5100947;27;45392;-75
2022/02/16 10:36:11;;;;;;;;;1.00;0.00;;;;;15.66;73.21;100384.88;5101487;27;45531;-75
2022/02/16 10:38:58;;;;;;;;;0.00;0.00;;;;;15.65;73.16;100374.25;5104885;27;46811;-75
2022/02/16 10:41:43;;;;;;;;;0.00;0.00;;;;;15.73;73.22;100377.66;5104618;27;45492;-75
2022/02/16 10:44:33;;;;;;;;;0.00;0.00;;;;;15.74;73.20;100367.91;5102046;27;45402;-76
2022/02/16 10:47:02;;;;;;;;;0.00;0.00;;;;;15.70;73.52;100383.91;5098778;27;45533;-75
2022/02/16 10:49:28;;;;;;;;;0.00;0.00;;;;;15.70;73.49;100383.91;5103599;27;46491;-75
2022/02/16 10:52:04;;;;;;;;;0.00;0.00;;;;;15.70;73.64;100383.91;5100929;27;45195;-76
2022/02/16 10:54:30;;;;;;;;;0.00;0.00;;;;;15.62;73.59;100391.13;5097365;27;45364;-75
2022/02/16 10:56:55;;;;;;;;;0.33;0.00;;;;;15.62;73.72;100393.78;5097643;27;45346;-77
2022/02/16 10:59:21;;;;;;;;;0.00;0.00;;;;;15.64;74.04;100389.34;5105341;27;49052;-76
2022/02/16 11:01:46;;;;;;;;;2.00;0.00;;;;;15.64;73.91;100407.97;5089591;27;45275;-77
2022/02/16 11:04:14;;;;;;;;;1.00;0.00;;;;;15.65;73.83;100409.72;5109054;27;45282;-76
2022/02/16 11:06:45;;;;;;;;;0.00;0.00;;;;;15.65;74.05;100404.41;5112081;27;45630;-76
2022/02/16 11:09:22;;;;;;;;;0.00;0.00;;;;;15.65;74.15;100415.03;5105375;27;46185;-76
2022/02/16 11:11:48;;;;;;;;;0.00;0.00;;;;;15.66;74.34;100422.16;5097271;27;45699;-76
2022/02/16 11:14:13;;;;;;;;;0.00;0.00;;;;;15.65;74.41;100423.03;5099821;27;46613;-77
2022/02/16 11:16:41;;;;;;;;;6.00;0.00;;;;;15.68;74.20;100407.03;5079792;27;45420;-76
2022/02/16 11:19:32;;;;;;;;;1.00;1.00;;;;;15.67;74.14;100402.59;5080638;27;46879;-77
2022/02/16 11:22:18;;;;;;;;;0.00;0.00;;;;;15.61;74.17;100408.00;5097026;27;45555;-78
2022/02/16 11:24:45;;;;;;;;;0.00;0.00;;;;;15.60;74.52;100422.19;5098247;27;45507;-76